createdAt,value
2023-01-25T15:47:10.529Z,2.10
2023-01-25T15:49:39.587Z,2.20
2023-01-25T15:52:12.083Z,2.40
2023-01-25T15:54:48.611Z,2.60
2023-01-25T15:57:28.503Z,2.30
2023-01-25T15:59:57.797Z,2.10
2023-01-25T16:02:27.583Z,2.20
2023-01-25T16:04:55.901Z,2.20
2023-01-25T16:07:28.854Z,2.10
2023-01-25T16:09:56.969Z,2.00
2023-01-25T16:12:25.702Z,2.20
2023-01-25T16:14:53.825Z,2.30
2023-01-25T16:17:23.081Z,2.40
2023-01-25T16:19:53.076Z,2.50
2023-01-25T16:22:21.334Z,2.60
2023-01-25T16:24:49.648Z,2.70
2023-01-25T16:27:25.479Z,2.80
2023-01-25T16:29:54.094Z,2.80
2023-01-25T16:32:23.699Z,2.70
2023-01-25T16:34:56.660Z,2.60
2023-01-25T16:37:25.189Z,2.60
2023-01-25T16:40:18.147Z,2.30
2023-01-25T16:42:46.911Z,3.40
2023-01-25T16:45:16.880Z,2.30
2023-01-25T16:50:19.056Z,2.10
2023-01-25T16:52:50.056Z,1.90
2023-01-25T16:55:22.092Z,2.00
2023-01-25T16:57:55.672Z,2.00
2023-01-25T17:00:27.369Z,2.00
2023-01-25T17:02:59.605Z,2.10
2023-01-25T17:05:33.137Z,2.10
2023-01-25T17:08:03.298Z,1.70
2023-01-25T17:10:34.843Z,1.70
2023-01-25T17:13:03.463Z,2.10
2023-01-25T17:15:37.120Z,2.20
2023-01-25T17:18:08.684Z,2.40
2023-01-25T17:23:11.569Z,2.20
2023-01-25T17:25:40.781Z,2.10
2023-01-25T17:28:09.239Z,2.10
2023-01-25T17:30:41.598Z,2.10
2023-01-25T17:33:10.112Z,1.90
2023-01-25T17:35:49.461Z,1.80
2023-01-25T17:38:20.477Z,1.90
2023-01-25T17:40:49.733Z,2.20
2023-01-25T17:43:18.493Z,2.60
2023-01-25T17:45:46.849Z,2.30
2023-01-25T17:48:15.215Z,2.30
2023-01-25T17:50:44.897Z,2.10
2023-01-25T17:53:13.223Z,2.30
2023-01-25T17:55:41.647Z,2.20
2023-01-25T17:58:12.259Z,2.10
2023-01-25T18:00:41.260Z,2.00
2023-01-25T18:03:10.272Z,2.10
2023-01-25T18:05:41.365Z,2.20
2023-01-25T18:08:12.404Z,2.30
2023-01-25T18:10:41.517Z,2.30
2023-01-25T18:13:10.119Z,2.30
2023-01-25T18:15:41.252Z,2.40
2023-01-25T18:18:10.155Z,2.50
2023-01-25T18:23:09.325Z,2.20
2023-01-25T18:28:08.666Z,1.90
2023-01-25T18:30:40.863Z,1.90
2023-01-25T18:35:41.716Z,2.60
2023-01-25T18:38:14.828Z,2.00
2023-01-25T18:40:47.052Z,2.10
2023-01-25T18:45:47.356Z,1.90
2023-01-25T18:48:20.017Z,1.80
2023-01-25T18:50:49.165Z,2.00
2023-01-25T18:58:31.635Z,2.10
2023-01-25T19:01:05.538Z,2.20
2023-01-25T19:03:34.859Z,2.20
2023-01-25T19:06:04.917Z,2.00
2023-01-25T19:08:41.095Z,1.80
2023-01-25T19:11:13.978Z,1.50
2023-01-25T19:13:44.728Z,1.40
2023-01-25T19:16:16.488Z,1.30
2023-01-25T19:18:47.830Z,1.30
2023-01-25T19:21:19.578Z,1.30
2023-01-25T19:23:50.389Z,1.30
